createdAt,value
2017-11-01T00:01:16.864Z,14.45
2017-11-01T00:03:45.298Z,18.90
2017-11-01T00:06:13.707Z,14.23
2017-11-01T00:08:41.320Z,14.45
2017-11-01T00:11:08.981Z,32.80
2017-11-01T00:13:36.600Z,20.25
2017-11-01T00:16:04.286Z,17.83
2017-11-01T00:18:32.692Z,14.57
2017-11-01T00:21:00.342Z,18.73
2017-11-01T00:23:28.748Z,15.50
2017-11-01T00:25:56.392Z,24.10
2017-11-01T00:28:24.031Z,24.50
2017-11-01T00:30:52.412Z,21.42
2017-11-01T00:33:20.812Z,24.35
2017-11-01T00:35:48.442Z,16.50
2017-11-01T00:38:16.102Z,29.83
2017-11-01T00:40:43.742Z,19.92
2017-11-01T00:43:11.398Z,21.20
2017-11-01T00:45:39.048Z,18.98
2017-11-01T00:48:06.683Z,15.88
2017-11-01T00:50:35.118Z,17.00
2017-11-01T00:53:02.751Z,30.05
2017-11-01T00:55:30.401Z,27.77
2017-11-01T00:57:58.809Z,22.30
2017-11-01T01:00:26.442Z,25.05
2017-11-01T01:02:54.838Z,21.42
2017-11-01T01:05:22.503Z,16.50
2017-11-01T01:07:50.134Z,25.95
2017-11-01T01:10:17.753Z,29.20
2017-11-01T01:12:45.416Z,23.55
2017-11-01T01:15:13.065Z,26.27
2017-11-01T01:17:40.960Z,17.52
2017-11-01T01:20:08.620Z,21.85
2017-11-01T01:22:36.270Z,22.17
2017-11-01T01:25:03.911Z,22.85
2017-11-01T01:27:32.342Z,22.13
2017-11-01T01:29:59.982Z,22.95
2017-11-01T01:32:27.642Z,23.45
2017-11-01T01:34:55.285Z,16.70
2017-11-01T01:37:22.924Z,27.40
2017-11-01T01:39:50.573Z,29.92
2017-11-01T01:42:18.192Z,23.75
2017-11-01T01:44:45.804Z,27.83
2017-11-01T01:47:13.470Z,30.55
2017-11-01T01:49:41.099Z,27.87
2017-11-01T01:52:08.735Z,42.22
2017-11-01T01:54:36.409Z,23.92
2017-11-01T01:57:04.028Z,28.30
2017-11-01T01:59:31.666Z,19.00
2017-11-01T02:01:59.295Z,24.92
2017-11-01T02:04:26.931Z,30.42
2017-11-01T02:06:55.372Z,22.52
2017-11-01T02:09:22.998Z,38.17
2017-11-01T02:11:50.654Z,31.00
2017-11-01T02:14:18.278Z,25.65
2017-11-01T02:16:45.925Z,24.73
2017-11-01T02:19:13.602Z,33.03
2017-11-01T02:21:41.234Z,21.62
2017-11-01T02:24:08.865Z,28.02
2017-11-01T02:26:37.247Z,20.52
2017-11-01T02:29:05.669Z,21.42
2017-11-01T02:31:33.326Z,20.58
2017-11-01T02:34:00.994Z,16.85
2017-11-01T02:36:28.630Z,30.20
2017-11-01T02:38:56.275Z,18.62
2017-11-01T02:41:24.725Z,17.75
2017-11-01T02:43:52.345Z,14.95
2017-11-01T02:46:20.025Z,19.37
2017-11-01T02:48:47.644Z,23.90
2017-11-01T02:51:15.293Z,20.35
2017-11-01T02:53:42.943Z,26.08
2017-11-01T02:56:11.335Z,20.73
2017-11-01T02:58:38.995Z,17.08
2017-11-01T03:01:06.622Z,25.90
2017-11-01T03:03:34.284Z,24.15
2017-11-01T03:06:01.923Z,18.83
2017-11-01T03:08:30.304Z,16.27
2017-11-01T03:10:57.984Z,29.83
2017-11-01T03:13:25.621Z,24.90
2017-11-01T03:15:54.010Z,22.62
2017-11-01T03:18:22.434Z,33.20
2017-11-01T03:20:50.069Z,23.00
2017-11-01T03:23:17.740Z,22.58
2017-11-01T03:25:45.420Z,37.70
2017-11-01T03:28:13.070Z,23.92
2017-11-01T03:30:40.745Z,37.65
2017-11-01T03:33:08.382Z,25.05
2017-11-01T03:35:36.788Z,20.08
2017-11-01T03:38:04.399Z,29.05
2017-11-01T03:40:31.981Z,17.85
2017-11-01T03:43:00.370Z,24.98
2017-11-01T03:45:28.720Z,27.98
2017-11-01T03:47:56.356Z,34.35
2017-11-01T03:50:23.967Z,32.38
2017-11-01T03:52:52.363Z,27.95
2017-11-01T03:55:20.739Z,33.45
2017-11-01T03:57:49.128Z,24.75
2017-11-01T04:00:17.480Z,59.72
2017-11-01T04:02:45.083Z,26.48
2017-11-01T04:05:12.688Z,34.95
2017-11-01T04:07:40.295Z,22.25
2017-11-01T04:10:08.686Z,25.60
2017-11-01T04:12:36.299Z,33.55
2017-11-01T04:15:03.941Z,25.75
2017-11-01T04:17:31.544Z,24.42
2017-11-01T04:19:59.939Z,19.92
2017-11-01T04:22:28.336Z,31.67
2017-11-01T04:24:55.936Z,20.40
2017-11-01T04:27:23.603Z,18.20
2017-11-01T04:29:51.207Z,22.87
2017-11-01T04:32:19.589Z,33.67
2017-11-01T04:34:47.999Z,34.30
2017-11-01T04:37:15.611Z,29.10
2017-11-01T04:39:43.241Z,34.22
2017-11-01T04:42:10.848Z,43.08
2017-11-01T04:44:38.475Z,29.35
2017-11-01T04:47:06.096Z,42.25
2017-11-01T04:49:37.407Z,29.98
2017-11-01T04:52:08.909Z,40.10
2017-11-01T04:54:36.528Z,30.27
2017-11-01T04:57:04.139Z,66.25
2017-11-01T04:59:31.774Z,27.02
2017-11-01T05:02:01.180Z,41.63
2017-11-01T05:04:29.547Z,39.22
2017-11-01T05:06:57.164Z,36.35
2017-11-01T05:09:26.652Z,35.40
2017-11-01T05:11:54.290Z,25.95
2017-11-01T05:14:22.662Z,36.25
2017-11-01T05:16:52.245Z,36.55
2017-11-01T05:19:19.852Z,30.88
2017-11-01T05:21:48.224Z,36.90
2017-11-01T05:24:15.837Z,47.53
2017-11-01T05:26:43.440Z,35.45
2017-11-01T05:29:11.078Z,37.08
2017-11-01T05:31:38.699Z,44.80
2017-11-01T05:34:07.071Z,33.15
2017-11-01T05:36:35.478Z,39.28
2017-11-01T05:39:03.090Z,28.98
2017-11-01T05:41:30.703Z,38.58
2017-11-01T05:43:58.312Z,47.53
2017-11-01T05:46:25.913Z,39.65
2017-11-01T05:48:53.568Z,47.30
2017-11-01T05:51:21.952Z,37.95
2017-11-01T05:53:50.338Z,41.90
2017-11-01T05:56:21.925Z,46.10
2017-11-01T05:58:49.534Z,46.05
2017-11-01T06:01:17.940Z,46.92
2017-11-01T06:03:45.550Z,40.90
2017-11-01T06:06:13.205Z,52.95
2017-11-01T06:08:40.788Z,51.20
2017-11-01T06:11:08.393Z,44.97
2017-11-01T06:13:36.036Z,37.08
2017-11-01T06:16:04.403Z,42.62
2017-11-01T06:18:32.038Z,53.22
2017-11-01T06:20:59.650Z,48.58
2017-11-01T06:23:28.027Z,41.80
2017-11-01T06:25:56.423Z,52.80
2017-11-01T06:28:24.979Z,55.63
2017-11-01T06:30:52.626Z,49.88
2017-11-01T06:33:20.212Z,56.70
2017-11-01T06:35:47.805Z,45.90
2017-11-01T06:38:15.445Z,47.27
2017-11-01T06:40:43.817Z,41.67
2017-11-01T06:43:11.469Z,48.03
2017-11-01T06:45:39.078Z,64.18
2017-11-01T06:48:06.689Z,51.35
2017-11-01T06:50:34.301Z,36.10
2017-11-01T06:53:01.910Z,44.83
2017-11-01T06:55:29.532Z,44.08
2017-11-01T06:57:57.155Z,45.75
2017-11-01T07:00:36.719Z,61.17
2017-11-01T07:03:05.098Z,39.05
2017-11-01T07:05:33.455Z,34.55
2017-11-01T07:08:01.095Z,46.85
2017-11-01T07:10:28.700Z,46.58
2017-11-01T07:12:57.085Z,37.92
2017-11-01T07:15:25.468Z,43.33
2017-11-01T07:17:53.861Z,37.47
2017-11-01T07:20:21.476Z,36.58
2017-11-01T07:22:49.107Z,42.20
2017-11-01T07:25:16.717Z,41.30
2017-11-01T07:27:44.317Z,46.08
2017-11-01T07:30:11.947Z,30.30
2017-11-01T07:32:39.554Z,30.12
2017-11-01T07:35:07.165Z,47.80
2017-11-01T07:37:34.775Z,43.55
2017-11-01T07:40:02.389Z,36.67
2017-11-01T07:42:29.981Z,36.92
2017-11-01T07:44:58.375Z,48.92
2017-11-01T07:47:25.978Z,28.87
2017-11-01T07:49:54.374Z,37.35
2017-11-01T07:52:21.979Z,50.10
2017-11-01T07:54:49.612Z,46.30
2017-11-01T07:57:17.235Z,36.58
2017-11-01T07:59:44.842Z,48.85
2017-11-01T08:02:12.469Z,38.75
2017-11-01T08:04:40.075Z,35.78
2017-11-01T08:07:08.446Z,36.90
2017-11-01T08:09:36.059Z,40.47
2017-11-01T08:12:03.645Z,41.63
2017-11-01T08:14:31.245Z,38.23
2017-11-01T08:17:00.636Z,32.03
2017-11-01T08:19:28.273Z,52.67
2017-11-01T08:21:55.873Z,40.15
2017-11-01T08:24:24.244Z,37.17
2017-11-01T08:26:51.866Z,55.05
2017-11-01T08:29:19.470Z,33.25
2017-11-01T08:31:47.104Z,41.47
2017-11-01T08:34:14.684Z,45.42
2017-11-01T08:36:42.333Z,54.50
2017-11-01T08:39:09.947Z,45.17
2017-11-01T08:41:38.309Z,55.10
2017-11-01T08:44:05.940Z,51.72
2017-11-01T08:46:33.538Z,48.33
2017-11-01T08:49:01.161Z,65.03
2017-11-01T08:51:29.554Z,37.63
2017-11-01T08:53:57.166Z,37.72
2017-11-01T08:56:24.802Z,42.90
2017-11-01T08:58:52.417Z,51.40
2017-11-01T09:01:20.053Z,50.83
2017-11-01T09:03:47.674Z,33.67
2017-11-01T09:06:15.307Z,40.70
2017-11-01T09:08:42.919Z,53.33
2017-11-01T09:11:11.301Z,56.95
2017-11-01T09:13:38.931Z,41.97
2017-11-01T09:16:06.535Z,55.90
2017-11-01T09:18:34.967Z,40.40
2017-11-01T09:21:02.589Z,34.30
2017-11-01T09:23:30.948Z,50.50
2017-11-01T09:25:58.566Z,47.85
2017-11-01T09:28:26.179Z,42.03
2017-11-01T09:30:53.810Z,34.40
2017-11-01T09:33:21.398Z,58.00
2017-11-01T09:35:48.992Z,32.00
2017-11-01T09:38:17.386Z,41.33
2017-11-01T09:40:44.975Z,38.73
2017-11-01T09:43:12.598Z,44.27
2017-11-01T09:45:40.967Z,47.30
2017-11-01T09:48:09.379Z,42.30
2017-11-01T09:50:36.990Z,55.13
2017-11-01T09:53:04.577Z,56.93
2017-11-01T09:55:32.947Z,51.53
2017-11-01T09:58:00.536Z,50.57
2017-11-01T10:00:28.166Z,82.73
2017-11-01T10:02:55.761Z,45.30
2017-11-01T10:05:24.110Z,40.37
2017-11-01T10:07:51.725Z,52.10
2017-11-01T10:10:19.323Z,43.10
2017-11-01T10:12:46.962Z,43.10
2017-11-01T10:15:14.570Z,59.53
2017-11-01T10:17:42.183Z,65.33
2017-11-01T10:20:09.793Z,38.07
2017-11-01T10:22:37.403Z,52.50
2017-11-01T10:25:05.035Z,56.83
2017-11-01T10:27:33.388Z,42.00
2017-11-01T10:30:00.991Z,54.33
2017-11-01T10:32:29.378Z,49.00
2017-11-01T10:34:56.973Z,42.97
2017-11-01T10:37:25.386Z,43.30
2017-11-01T10:39:52.988Z,47.43
2017-11-01T10:42:20.579Z,47.77
2017-11-01T10:44:48.208Z,48.57
2017-11-01T10:47:15.818Z,38.00
2017-11-01T10:49:44.460Z,45.73
2017-11-01T10:52:12.153Z,49.00
2017-11-01T10:54:39.761Z,33.23
2017-11-01T10:57:07.369Z,43.23
2017-11-01T10:59:34.977Z,41.47
2017-11-01T11:02:02.606Z,33.30
2017-11-01T11:04:30.246Z,45.70
2017-11-01T11:06:57.852Z,42.10
2017-11-01T11:09:25.455Z,53.50
2017-11-01T11:11:53.830Z,47.03
2017-11-01T11:14:22.210Z,37.60
2017-11-01T11:16:50.604Z,31.07
2017-11-01T11:19:18.217Z,46.70
2017-11-01T11:21:45.855Z,33.30
2017-11-01T11:24:13.457Z,37.70
2017-11-01T11:26:41.075Z,36.77
2017-11-01T11:29:08.685Z,40.03
2017-11-01T11:31:36.299Z,43.33
2017-11-01T11:34:03.923Z,38.40
2017-11-01T11:36:32.290Z,30.27
2017-11-01T11:38:59.926Z,29.37
2017-11-01T11:41:27.541Z,32.07
2017-11-01T11:43:55.893Z,44.40
2017-11-01T11:46:23.500Z,31.80
2017-11-01T11:48:51.111Z,36.97
2017-11-01T11:51:18.716Z,38.70
2017-11-01T11:53:47.092Z,29.90
2017-11-01T11:56:15.499Z,29.47
2017-11-01T11:58:43.122Z,36.50
2017-11-01T12:01:10.703Z,50.07
2017-11-01T12:03:39.107Z,31.03
2017-11-01T12:06:06.783Z,31.33
2017-11-01T12:08:34.394Z,30.40
2017-11-01T12:11:01.985Z,29.23
2017-11-01T12:13:29.610Z,30.93
2017-11-01T12:15:57.211Z,36.13
2017-11-01T12:18:24.818Z,32.10
2017-11-01T12:20:52.449Z,26.20
2017-11-01T12:23:20.042Z,30.30
2017-11-01T12:25:47.674Z,35.20
2017-11-01T12:28:15.288Z,35.83
2017-11-01T12:30:42.893Z,36.83
2017-11-01T12:33:10.504Z,24.13
2017-11-01T12:35:38.111Z,24.57
2017-11-01T12:38:06.494Z,39.43
2017-11-01T12:40:34.092Z,27.23
2017-11-01T12:43:01.700Z,30.10
2017-11-01T12:45:30.096Z,31.23
2017-11-01T12:47:58.447Z,45.70
2017-11-01T12:50:26.077Z,35.87
2017-11-01T12:52:53.665Z,28.97
2017-11-01T12:55:21.303Z,19.07
2017-11-01T12:57:48.888Z,35.27
2017-11-01T13:00:16.476Z,22.40
2017-11-01T13:02:44.856Z,26.97
2017-11-01T13:05:13.239Z,30.07
2017-11-01T13:07:41.634Z,50.17
2017-11-01T13:10:09.228Z,21.00
2017-11-01T13:12:36.840Z,22.47
2017-11-01T13:15:04.459Z,23.20
2017-11-01T13:17:32.059Z,21.90
2017-11-01T13:19:59.673Z,28.03
2017-11-01T13:22:27.273Z,25.47
2017-11-01T13:24:54.913Z,19.80
2017-11-01T13:27:22.504Z,28.83
2017-11-01T13:29:50.127Z,36.83
2017-11-01T13:32:17.726Z,23.27
2017-11-01T13:34:45.345Z,17.20
2017-11-01T13:37:12.929Z,28.87
2017-11-01T13:39:40.550Z,24.77
2017-11-01T13:42:08.905Z,18.00
2017-11-01T13:44:36.492Z,24.53
2017-11-01T13:47:04.886Z,18.00
2017-11-01T13:49:32.477Z,18.93
2017-11-01T13:52:00.883Z,21.40
2017-11-01T13:54:28.476Z,33.63
2017-11-01T13:56:56.833Z,26.07
2017-11-01T13:59:24.471Z,22.90
2017-11-01T14:01:52.825Z,29.83
2017-11-01T14:04:20.429Z,20.60
2017-11-01T14:06:48.033Z,14.63
2017-11-01T14:09:15.649Z,41.57
2017-11-01T14:11:43.231Z,22.03
2017-11-01T14:14:10.827Z,21.80
2017-11-01T14:16:38.433Z,14.00
2017-11-01T14:19:06.327Z,21.17
2017-11-01T14:21:34.237Z,24.33
2017-11-01T14:24:02.151Z,14.37
2017-11-01T14:26:30.084Z,16.80
2017-11-01T14:28:58.001Z,16.93
2017-11-01T14:31:26.678Z,34.57
2017-11-01T14:33:54.285Z,47.70
2017-11-01T14:36:21.900Z,18.97
2017-11-01T14:38:49.555Z,29.07
2017-11-01T14:41:17.168Z,35.20
2017-11-01T14:43:45.568Z,15.03
2017-11-01T14:46:13.182Z,39.37
2017-11-01T14:48:40.786Z,32.10
2017-11-01T14:51:08.411Z,19.33
2017-11-01T14:53:36.013Z,20.83
2017-11-01T14:56:03.630Z,17.10
2017-11-01T14:58:31.233Z,17.97
2017-11-01T15:00:58.847Z,15.80
2017-11-01T15:03:26.456Z,20.57
2017-11-01T15:05:54.811Z,13.80
2017-11-01T15:08:22.441Z,20.80
2017-11-01T15:10:50.043Z,12.50
2017-11-01T15:13:17.651Z,10.27
2017-11-01T15:15:45.262Z,33.17
2017-11-01T15:18:12.854Z,13.53
2017-11-01T15:20:41.243Z,21.07
2017-11-01T15:23:08.839Z,12.20
2017-11-01T15:25:36.441Z,14.73
2017-11-01T15:28:04.045Z,18.37
2017-11-01T15:30:31.638Z,20.30
2017-11-01T15:32:59.271Z,17.00
2017-11-01T15:35:26.856Z,19.13
2017-11-01T15:37:54.444Z,19.90
2017-11-01T15:40:22.057Z,22.03
2017-11-01T15:42:49.662Z,13.13
2017-11-01T15:45:17.275Z,13.40
2017-11-01T15:47:44.881Z,9.80
2017-11-01T15:50:12.463Z,19.60
2017-11-01T15:52:40.092Z,21.27
2017-11-01T15:55:07.684Z,15.03
2017-11-01T15:57:35.315Z,7.37
2017-11-01T16:00:02.918Z,14.43
2017-11-01T16:02:30.518Z,12.97
2017-11-01T16:04:58.117Z,12.30
2017-11-01T16:07:25.701Z,10.90
2017-11-01T16:09:53.328Z,15.53
2017-11-01T16:12:20.935Z,13.33
2017-11-01T16:14:48.539Z,9.53
2017-11-01T16:17:16.165Z,12.73
2017-11-01T16:19:44.525Z,34.10
2017-11-01T16:22:12.172Z,22.60
2017-11-01T16:24:39.756Z,18.63
2017-11-01T16:27:07.370Z,23.00
2017-11-01T16:29:35.937Z,29.80
2017-11-01T16:32:03.537Z,19.33
2017-11-01T16:34:31.144Z,23.03
2017-11-01T16:36:59.523Z,30.73
2017-11-01T16:39:27.909Z,34.27
2017-11-01T16:41:56.268Z,22.70
2017-11-01T16:44:23.861Z,36.17
2017-11-01T16:46:52.251Z,30.80
2017-11-01T16:49:19.874Z,18.33
2017-11-01T16:51:47.470Z,19.07
2017-11-01T16:54:15.838Z,24.37
2017-11-01T16:56:44.239Z,18.37
2017-11-01T16:59:11.839Z,21.83
2017-11-01T17:01:39.461Z,16.23
2017-11-01T17:04:07.855Z,11.10
2017-11-01T17:06:35.442Z,13.97
2017-11-01T17:09:03.077Z,17.53
2017-11-01T17:11:30.656Z,16.73
2017-11-01T17:13:58.260Z,13.23
2017-11-01T17:16:25.859Z,12.23
2017-11-01T17:18:53.458Z,12.37
2017-11-01T17:21:21.846Z,13.80
2017-11-01T17:23:50.199Z,13.27
2017-11-01T17:26:17.829Z,12.40
2017-11-01T17:28:46.181Z,17.30
2017-11-01T17:31:13.773Z,16.30
2017-11-01T17:33:42.162Z,15.77
2017-11-01T17:36:09.763Z,14.90
2017-11-01T17:38:37.398Z,17.47
2017-11-01T17:41:04.983Z,11.33
2017-11-01T17:43:32.577Z,15.63
2017-11-01T17:46:00.184Z,14.60
2017-11-01T17:48:28.533Z,21.20
2017-11-01T17:50:56.157Z,17.33
2017-11-01T17:53:23.749Z,11.63
2017-11-01T17:55:51.355Z,11.40
2017-11-01T17:58:18.952Z,9.53
2017-11-01T18:00:46.535Z,19.43
2017-11-01T18:03:14.162Z,7.83
2017-11-01T18:05:41.740Z,13.10
2017-11-01T18:08:09.347Z,14.10
2017-11-01T18:10:37.741Z,14.50
2017-11-01T18:13:06.102Z,8.03
2017-11-01T18:15:33.719Z,14.63
2017-11-01T18:18:01.296Z,10.03
2017-11-01T18:20:28.896Z,11.33
2017-11-01T18:22:57.264Z,10.13
2017-11-01T18:25:24.883Z,12.70
2017-11-01T18:27:52.477Z,12.47
2017-11-01T18:30:20.110Z,10.43
2017-11-01T18:32:47.680Z,10.10
2017-11-01T18:35:15.288Z,9.70
2017-11-01T18:37:42.890Z,8.00
2017-11-01T18:40:10.483Z,7.20
2017-11-01T18:42:38.098Z,8.50
2017-11-01T18:45:05.691Z,11.80
2017-11-01T18:47:33.307Z,9.70
2017-11-01T18:50:01.703Z,11.43
2017-11-01T18:52:30.067Z,20.73
2017-11-01T18:54:58.475Z,6.57
2017-11-01T18:57:26.070Z,9.63
2017-11-01T18:59:53.657Z,12.37
2017-11-01T19:02:21.258Z,16.10
2017-11-01T19:04:48.836Z,7.87
2017-11-01T19:07:16.452Z,12.10
2017-11-01T19:09:44.050Z,15.23
2017-11-01T19:12:11.660Z,13.80
2017-11-01T19:14:39.371Z,16.80
2017-11-01T19:17:06.956Z,14.50
2017-11-01T19:19:34.579Z,8.73
2017-11-01T19:22:02.951Z,13.50
2017-11-01T19:24:30.566Z,13.70
2017-11-01T19:26:58.165Z,14.90
2017-11-01T19:29:25.793Z,26.00
2017-11-01T19:31:53.388Z,23.85
2017-11-01T19:34:20.969Z,9.70
2017-11-01T19:36:48.569Z,8.27
2017-11-01T19:39:16.151Z,12.87
2017-11-01T19:41:43.769Z,8.30
2017-11-01T19:44:12.127Z,31.30
2017-11-01T19:46:39.712Z,18.80
2017-11-01T19:49:08.097Z,17.57
2017-11-01T19:51:36.464Z,28.60
2017-11-01T19:54:04.864Z,21.03
2017-11-01T19:56:33.231Z,18.87
2017-11-01T19:59:01.602Z,33.90
2017-11-01T20:01:29.219Z,13.97
2017-11-01T20:03:56.836Z,33.43
2017-11-01T20:06:25.244Z,16.37
2017-11-01T20:08:52.848Z,27.90
2017-11-01T20:11:20.438Z,14.60
2017-11-01T20:13:48.844Z,10.93
2017-11-01T20:16:16.429Z,15.00
2017-11-01T20:18:44.040Z,19.23
2017-11-01T20:21:11.653Z,24.27
2017-11-01T20:23:39.272Z,26.17
2017-11-01T20:26:06.846Z,8.63
2017-11-01T20:28:35.229Z,27.10
2017-11-01T20:31:03.591Z,9.20
2017-11-01T20:33:31.187Z,6.23
2017-11-01T20:35:58.791Z,13.03
2017-11-01T20:38:26.376Z,6.57
2017-11-01T20:40:53.980Z,9.23
2017-11-01T20:43:21.574Z,11.57
2017-11-01T20:45:49.199Z,12.33
2017-11-01T20:48:16.794Z,8.60
2017-11-01T20:50:44.401Z,12.30
2017-11-01T20:53:12.775Z,28.25
2017-11-01T20:55:40.415Z,22.53
2017-11-01T20:58:08.016Z,9.07
2017-11-01T21:00:36.395Z,11.90
2017-11-01T21:03:04.769Z,12.50
2017-11-01T21:05:33.158Z,7.40
2017-11-01T21:08:01.536Z,10.20
2017-11-01T21:10:29.943Z,23.77
2017-11-01T21:12:57.540Z,14.53
2017-11-01T21:15:25.135Z,9.90
2017-11-01T21:17:52.733Z,6.73
2017-11-01T21:20:20.355Z,8.17
2017-11-01T21:22:47.968Z,7.33
2017-11-01T21:25:15.548Z,23.90
2017-11-01T21:27:43.136Z,16.20
2017-11-01T21:30:10.766Z,12.67
2017-11-01T21:32:38.353Z,13.47
2017-11-01T21:35:06.044Z,9.40
2017-11-01T21:37:34.479Z,13.87
2017-11-01T21:40:02.065Z,11.20
2017-11-01T21:42:29.673Z,17.40
2017-11-01T21:44:57.251Z,7.40
2017-11-01T21:47:24.868Z,9.37
2017-11-01T21:49:52.479Z,7.30
2017-11-01T21:52:20.069Z,10.03
2017-11-01T21:54:47.677Z,8.93
2017-11-01T21:57:16.037Z,8.07
2017-11-01T21:59:43.655Z,8.37
2017-11-01T22:02:11.249Z,14.60
2017-11-01T22:04:38.886Z,7.37
2017-11-01T22:07:06.477Z,10.20
2017-11-01T22:09:34.083Z,10.83
2017-11-01T22:12:01.702Z,7.23
2017-11-01T22:14:29.302Z,9.90
2017-11-01T22:16:57.690Z,5.23
2017-11-01T22:19:25.299Z,10.00
2017-11-01T22:21:52.917Z,8.97
2017-11-01T22:24:20.498Z,11.77
2017-11-01T22:26:48.104Z,9.67
2017-11-01T22:29:15.694Z,6.50
2017-11-01T22:31:44.055Z,7.80
2017-11-01T22:34:11.679Z,8.37
2017-11-01T22:36:39.303Z,13.37
2017-11-01T22:39:06.892Z,12.83
2017-11-01T22:41:34.482Z,10.03
2017-11-01T22:44:02.113Z,8.57
2017-11-01T22:46:29.720Z,5.50
2017-11-01T22:48:57.308Z,9.73
2017-11-01T22:51:25.706Z,15.10
2017-11-01T22:53:53.309Z,6.60
2017-11-01T22:56:20.894Z,13.97
2017-11-01T22:58:48.515Z,18.40
2017-11-01T23:01:16.104Z,8.40
2017-11-01T23:03:43.736Z,5.43
2017-11-01T23:06:11.328Z,14.87
2017-11-01T23:08:39.696Z,6.50
2017-11-01T23:11:07.291Z,12.63
2017-11-01T23:13:34.876Z,10.03
2017-11-01T23:16:03.275Z,8.67
2017-11-01T23:18:30.864Z,13.97
2017-11-01T23:20:58.453Z,12.73
2017-11-01T23:23:26.077Z,10.70
2017-11-01T23:25:53.663Z,7.37
2017-11-01T23:28:21.313Z,5.57
2017-11-01T23:30:48.921Z,9.27
2017-11-01T23:33:17.292Z,6.27
2017-11-01T23:35:44.925Z,7.43
2017-11-01T23:38:12.508Z,10.23
2017-11-01T23:40:40.129Z,10.03
2017-11-01T23:43:07.707Z,14.33
2017-11-01T23:45:35.311Z,15.67
2017-11-01T23:48:03.688Z,7.00
2017-11-01T23:50:31.285Z,8.30
2017-11-01T23:52:58.912Z,6.67
2017-11-01T23:55:26.518Z,6.20
2017-11-01T23:57:54.110Z,12.00
